sensor_id;sensor_type;location;lat;lon;timestamp;pressure;altitude;pressure_sealevel;temperature;humidity
13312;BME280;34033;48.672;9.376;2022-08-05T00:00:46;98087.25;;;25.99;63.13
13312;BME280;34033;48.672;9.376;2022-08-05T00:03:11;98090.47;;;26.07;62.75
13312;BME280;34033;48.672;9.376;2022-08-05T00:05:37;98080.84;;;26.10;62.64
13312;BME280;34033;48.672;9.376;2022-08-05T00:08:02;98091.88;;;26.17;61.93
13312;BME280;34033;48.672;9.376;2022-08-05T00:10:28;98085.75;;;26.24;61.42
13312;BME280;34033;48.672;9.376;2022-08-05T00:12:53;98093.56;;;26.24;61.50
13312;BME280;34033;48.672;9.376;2022-08-05T00:15:18;98103.44;;;26.23;61.95
13312;BME280;34033;48.672;9.376;2022-08-05T00:17:44;98104.13;;;26.17;61.71
13312;BME280;34033;48.672;9.376;2022-08-05T00:20:09;98104.34;;;26.14;61.80
13312;BME280;34033;48.672;9.376;2022-08-05T00:22:35;98104.22;;;26.03;62.14
13312;BME280;34033;48.672;9.376;2022-08-05T00:25:01;98094.75;;;25.97;62.46
13312;BME280;34033;48.672;9.376;2022-08-05T00:27:26;98101.50;;;25.94;62.54
13312;BME280;34033;48.672;9.376;2022-08-05T00:29:54;98098.94;;;25.96;62.41
13312;BME280;34033;48.672;9.376;2022-08-05T00:32:20;98099.50;;;26.00;62.34
13312;BME280;34033;48.672;9.376;2022-08-05T00:34:45;98091.69;;;26.00;62.22
13312;BME280;34033;48.672;9.376;2022-08-05T00:37:11;98095.91;;;26.05;62.38
13312;BME280;34033;48.672;9.376;2022-08-05T00:39:36;98088.91;;;26.06;62.39
13312;BME280;34033;48.672;9.376;2022-08-05T00:42:02;98086.03;;;26.06;62.28
13312;BME280;34033;48.672;9.376;2022-08-05T00:44:27;98087.88;;;26.09;62.11
13312;BME280;34033;48.672;9.376;2022-08-05T00:46:53;98093.91;;;26.11;62.11
13312;BME280;34033;48.672;9.376;2022-08-05T00:49:18;98097.50;;;26.06;61.70
13312;BME280;34033;48.672;9.376;2022-08-05T00:51:47;98095.34;;;26.01;61.48
13312;BME280;34033;48.672;9.376;2022-08-05T00:54:12;98103.31;;;25.91;61.57
13312;BME280;34033;48.672;9.376;2022-08-05T00:56:38;98109.38;;;25.99;62.20
13312;BME280;34033;48.672;9.376;2022-08-05T00:59:04;98105.94;;;25.95;62.32
13312;BME280;34033;48.672;9.376;2022-08-05T01:01:30;98095.00;;;25.93;61.89
13312;BME280;34033;48.672;9.376;2022-08-05T01:03:55;98103.25;;;25.86;62.04
13312;BME280;34033;48.672;9.376;2022-08-05T01:06:21;98104.16;;;25.77;62.41
13312;BME280;34033;48.672;9.376;2022-08-05T01:08:46;98109.41;;;25.79;62.30
13312;BME280;34033;48.672;9.376;2022-08-05T01:11:21;98103.25;;;25.86;62.33
13312;BME280;34033;48.672;9.376;2022-08-05T01:13:56;98110.47;;;25.81;62.33
13312;BME280;34033;48.672;9.376;2022-08-05T01:29:37;98157.56;;;25.45;63.89
13312;BME280;34033;48.672;9.376;2022-08-05T01:32:07;98180.81;;;25.53;63.82
13312;BME280;34033;48.672;9.376;2022-08-05T01:34:37;98173.81;;;25.54;63.34
13312;BME280;34033;48.672;9.376;2022-08-05T01:37:24;98175.72;;;25.57;63.26
13312;BME280;34033;48.672;9.376;2022-08-05T01:39:54;98171.47;;;25.52;62.53
13312;BME280;34033;48.672;9.376;2022-08-05T01:42:22;98177.09;;;25.61;62.81
13312;BME280;34033;48.672;9.376;2022-08-05T01:44:48;98173.81;;;25.54;62.74
13312;BME280;34033;48.672;9.376;2022-08-05T01:47:16;98175.81;;;25.48;62.34
13312;BME280;34033;48.672;9.376;2022-08-05T01:49:43;98175.31;;;25.49;62.63
13312;BME280;34033;48.672;9.376;2022-08-05T01:52:10;98180.16;;;25.43;63.23
13312;BME280;34033;48.672;9.376;2022-08-05T01:54:43;98194.78;;;25.45;63.01
13312;BME280;34033;48.672;9.376;2022-08-05T01:57:10;98195.06;;;25.47;62.47
13312;BME280;34033;48.672;9.376;2022-08-05T01:59:38;98191.44;;;25.47;62.05
13312;BME280;34033;48.672;9.376;2022-08-05T02:02:05;98198.44;;;25.46;62.34
13312;BME280;34033;48.672;9.376;2022-08-05T02:04:34;98204.06;;;25.40;60.83
13312;BME280;34033;48.672;9.376;2022-08-05T02:07:01;98209.13;;;25.30;61.26
13312;BME280;34033;48.672;9.376;2022-08-05T02:09:26;98198.69;;;25.13;61.05
13312;BME280;34033;48.672;9.376;2022-08-05T02:12:05;98209.34;;;25.12;61.65
13312;BME280;34033;48.672;9.376;2022-08-05T02:14:38;98233.81;;;25.13;61.20
13312;BME280;34033;48.672;9.376;2022-08-05T02:17:07;98221.34;;;25.16;60.84
13312;BME280;34033;48.672;9.376;2022-08-05T02:19:42;98214.66;;;25.19;60.22
13312;BME280;34033;48.672;9.376;2022-08-05T02:22:15;98207.16;;;25.22;59.63
13312;BME280;34033;48.672;9.376;2022-08-05T02:24:45;98204.28;;;25.22;59.54
13312;BME280;34033;48.672;9.376;2022-08-05T02:27:12;98216.31;;;25.26;58.85
13312;BME280;34033;48.672;9.376;2022-08-05T02:29:40;98217.72;;;25.30;58.49
13312;BME280;34033;48.672;9.376;2022-08-05T02:32:08;98227.34;;;25.33;58.52
13312;BME280;34033;48.672;9.376;2022-08-05T02:34:36;98220.66;;;25.36;57.48
13312;BME280;34033;48.672;9.376;2022-08-05T02:37:04;98217.28;;;25.38;57.31
13312;BME280;34033;48.672;9.376;2022-08-05T02:39:34;98212.84;;;25.37;57.46
13312;BME280;34033;48.672;9.376;2022-08-05T02:42:01;98213.63;;;25.37;57.30
13312;BME280;34033;48.672;9.376;2022-08-05T02:44:29;98217.09;;;25.41;56.79
13312;BME280;34033;48.672;9.376;2022-08-05T02:46:57;98212.66;;;25.40;56.84
13312;BME280;34033;48.672;9.376;2022-08-05T02:49:24;98217.59;;;25.40;56.64
13312;BME280;34033;48.672;9.376;2022-08-05T02:51:51;98225.69;;;25.41;56.51
13312;BME280;34033;48.672;9.376;2022-08-05T02:54:19;98216.31;;;25.41;56.57
13312;BME280;34033;48.672;9.376;2022-08-05T02:56:47;98213.44;;;25.41;56.70
13312;BME280;34033;48.672;9.376;2022-08-05T02:59:15;98225.06;;;25.37;56.74
13312;BME280;34033;48.672;9.376;2022-08-05T03:01:43;98217.38;;;25.43;56.72
13312;BME280;34033;48.672;9.376;2022-08-05T03:04:12;98224.97;;;25.46;56.51
13312;BME280;34033;48.672;9.376;2022-08-05T03:06:40;98231.28;;;25.50;56.58
13312;BME280;34033;48.672;9.376;2022-08-05T03:09:06;98234.13;;;25.50;56.51
13312;BME280;34033;48.672;9.376;2022-08-05T03:11:32;98244.31;;;25.51;56.61
13312;BME280;34033;48.672;9.376;2022-08-05T03:13:57;98243.91;;;25.44;56.98
13312;BME280;34033;48.672;9.376;2022-08-05T03:16:23;98233.25;;;25.44;57.38
13312;BME280;34033;48.672;9.376;2022-08-05T03:18:48;98225.47;;;25.45;57.62
13312;BME280;34033;48.672;9.376;2022-08-05T03:21:14;98231.97;;;25.45;57.15
13312;BME280;34033;48.672;9.376;2022-08-05T03:23:41;98227.75;;;25.41;57.32
13312;BME280;34033;48.672;9.376;2022-08-05T03:26:07;98231.19;;;25.45;57.62
13312;BME280;34033;48.672;9.376;2022-08-05T03:28:33;98228.25;;;25.39;56.75
13312;BME280;34033;48.672;9.376;2022-08-05T03:30:59;98236.72;;;25.33;57.20
13312;BME280;34033;48.672;9.376;2022-08-05T03:33:26;98232.97;;;25.27;57.48
13312;BME280;34033;48.672;9.376;2022-08-05T03:35:54;98249.75;;;25.20;57.70
13312;BME280;34033;48.672;9.376;2022-08-05T03:38:21;98244.72;;;25.15;57.71
13312;BME280;34033;48.672;9.376;2022-08-05T03:40:47;98250.25;;;25.04;58.33
13312;BME280;34033;48.672;9.376;2022-08-05T03:43:13;98250.94;;;24.99;58.70
13312;BME280;34033;48.672;9.376;2022-08-05T03:45:38;98250.03;;;24.92;58.48
13312;BME280;34033;48.672;9.376;2022-08-05T03:48:04;98250.34;;;24.95;58.85
13312;BME280;34033;48.672;9.376;2022-08-05T03:54:00;98257.84;;;24.92;59.41
13312;BME280;34033;48.672;9.376;2022-08-05T03:56:42;98267.28;;;24.83;59.41
13312;BME280;34033;48.672;9.376;2022-08-05T03:59:12;98268.34;;;24.71;60.05
13312;BME280;34033;48.672;9.376;2022-08-05T04:01:42;98259.06;;;24.76;59.95
13312;BME280;34033;48.672;9.376;2022-08-05T04:04:14;98267.66;;;24.76;59.94
13312;BME280;34033;48.672;9.376;2022-08-05T04:06:40;98267.97;;;24.78;59.84
13312;BME280;34033;48.672;9.376;2022-08-05T04:09:06;98259.28;;;24.87;59.62
13312;BME280;34033;48.672;9.376;2022-08-05T04:11:33;98266.50;;;24.98;59.25
13312;BME280;34033;48.672;9.376;2022-08-05T04:13:59;98262.03;;;24.82;58.68
13312;BME280;34033;48.672;9.376;2022-08-05T04:16:24;98256.00;;;24.65;58.67
13312;BME280;34033;48.672;9.376;2022-08-05T04:18:50;98246.13;;;24.51;59.03
13312;BME280;34033;48.672;9.376;2022-08-05T04:21:16;98258.13;;;24.41;59.24
13312;BME280;34033;48.672;9.376;2022-08-05T04:23:41;98268.53;;;24.29;59.36
13312;BME280;34033;48.672;9.376;2022-08-05T04:26:07;98285.59;;;24.15;59.70
13312;BME280;34033;48.672;9.376;2022-08-05T04:28:33;98294.88;;;24.00;60.12
13312;BME280;34033;48.672;9.376;2022-08-05T04:30:59;98293.94;;;23.94;60.43
13312;BME280;34033;48.672;9.376;2022-08-05T04:33:25;98293.22;;;23.85;61.00
13312;BME280;34033;48.672;9.376;2022-08-05T04:35:50;98298.97;;;23.76;61.14
13312;BME280;34033;48.672;9.376;2022-08-05T04:38:16;98289.31;;;23.73;61.47
13312;BME280;34033;48.672;9.376;2022-08-05T04:40:41;98288.72;;;23.69;61.84
13312;BME280;34033;48.672;9.376;2022-08-05T04:43:07;98285.38;;;23.71;61.81
13312;BME280;34033;48.672;9.376;2022-08-05T04:45:33;98280.28;;;23.75;61.70
13312;BME280;34033;48.672;9.376;2022-08-05T04:48:10;98288.97;;;23.80;61.73
13312;BME280;34033;48.672;9.376;2022-08-05T04:50:42;98321.31;;;23.77;61.85
13312;BME280;34033;48.672;9.376;2022-08-05T04:53:08;98328.59;;;23.78;62.34
13312;BME280;34033;48.672;9.376;2022-08-05T04:55:35;98325.59;;;23.82;62.22
13312;BME280;34033;48.672;9.376;2022-08-05T04:58:02;98327.94;;;23.83;61.81
13312;BME280;34033;48.672;9.376;2022-08-05T05:00:27;98338.91;;;23.85;61.81
13312;BME280;34033;48.672;9.376;2022-08-05T05:02:53;98342.81;;;23.87;61.92
13312;BME280;34033;48.672;9.376;2022-08-05T05:05:18;98359.47;;;23.89;62.02
13312;BME280;34033;48.672;9.376;2022-08-05T05:07:43;98363.28;;;23.95;62.18
13312;BME280;34033;48.672;9.376;2022-08-05T05:10:09;98379.59;;;23.94;62.17
13312;BME280;34033;48.672;9.376;2022-08-05T05:12:34;98381.53;;;23.88;62.08
13312;BME280;34033;48.672;9.376;2022-08-05T05:14:59;98391.53;;;23.84;62.31
13312;BME280;34033;48.672;9.376;2022-08-05T05:17:25;98403.94;;;23.81;62.72
13312;BME280;34033;48.672;9.376;2022-08-05T05:19:53;98417.56;;;23.86;63.14
13312;BME280;34033;48.672;9.376;2022-08-05T05:22:19;98428.31;;;23.91;63.04
13312;BME280;34033;48.672;9.376;2022-08-05T05:24:44;98448.44;;;23.96;63.07
13312;BME280;34033;48.672;9.376;2022-08-05T05:27:10;98454.31;;;24.02;63.24
13312;BME280;34033;48.672;9.376;2022-08-05T05:29:35;98461.41;;;24.06;62.58
13312;BME280;34033;48.672;9.376;2022-08-05T05:32:00;98465.38;;;24.09;62.34
13312;BME280;34033;48.672;9.376;2022-08-05T05:34:26;98465.19;;;24.13;62.35
13312;BME280;34033;48.672;9.376;2022-08-05T05:36:51;98461.22;;;24.10;62.12
13312;BME280;34033;48.672;9.376;2022-08-05T05:39:17;98463.63;;;24.11;62.10
13312;BME280;34033;48.672;9.376;2022-08-05T05:41:42;98463.63;;;24.11;61.92
13312;BME280;34033;48.672;9.376;2022-08-05T05:44:08;98476.94;;;24.15;61.76
13312;BME280;34033;48.672;9.376;2022-08-05T05:46:34;98489.31;;;24.21;61.65
13312;BME280;34033;48.672;9.376;2022-08-05T05:48:59;98488.38;;;24.24;61.50
13312;BME280;34033;48.672;9.376;2022-08-05T05:51:24;98491.69;;;24.31;61.32
13312;BME280;34033;48.672;9.376;2022-08-05T05:53:51;98502.44;;;24.36;61.21
13312;BME280;34033;48.672;9.376;2022-08-05T05:56:16;98503.84;;;24.41;60.97
13312;BME280;34033;48.672;9.376;2022-08-05T05:58:47;98513.97;;;24.51;60.48
13312;BME280;34033;48.672;9.376;2022-08-05T06:01:13;98513.63;;;24.58;60.45
13312;BME280;34033;48.672;9.376;2022-08-05T06:03:41;98523.88;;;24.65;60.23
13312;BME280;34033;48.672;9.376;2022-08-05T06:06:07;98517.81;;;24.72;60.07
13312;BME280;34033;48.672;9.376;2022-08-05T06:08:32;98514.81;;;24.75;60.04
13312;BME280;34033;48.672;9.376;2022-08-05T06:10:58;98520.16;;;24.82;59.75
13312;BME280;34033;48.672;9.376;2022-08-05T06:13:24;98512.69;;;24.85;59.63
13312;BME280;34033;48.672;9.376;2022-08-05T06:15:49;98505.97;;;24.97;59.39
13312;BME280;34033;48.672;9.376;2022-08-05T06:18:14;98502.25;;;25.06;59.68
13312;BME280;34033;48.672;9.376;2022-08-05T06:20:40;98499.06;;;25.04;59.46
13312;BME280;34033;48.672;9.376;2022-08-05T06:23:05;98496.75;;;25.17;58.91
13312;BME280;34033;48.672;9.376;2022-08-05T06:25:30;98494.50;;;25.21;59.12
13312;BME280;34033;48.672;9.376;2022-08-05T06:27:56;98508.19;;;25.41;58.55
13312;BME280;34033;48.672;9.376;2022-08-05T06:30:21;98511.28;;;25.52;58.80
13312;BME280;34033;48.672;9.376;2022-08-05T06:32:46;98511.69;;;25.59;58.13
13312;BME280;34033;48.672;9.376;2022-08-05T06:35:12;98507.88;;;25.62;57.71
13312;BME280;34033;48.672;9.376;2022-08-05T06:37:38;98513.94;;;25.55;56.75
13312;BME280;34033;48.672;9.376;2022-08-05T06:40:04;98508.56;;;25.57;56.70
13312;BME280;34033;48.672;9.376;2022-08-05T06:42:29;98511.53;;;25.63;56.69
13312;BME280;34033;48.672;9.376;2022-08-05T06:44:55;98511.91;;;25.70;56.01
13312;BME280;34033;48.672;9.376;2022-08-05T06:47:20;98501.19;;;25.80;56.01
13312;BME280;34033;48.672;9.376;2022-08-05T06:49:45;98504.75;;;25.90;55.73
13312;BME280;34033;48.672;9.376;2022-08-05T06:52:11;98509.09;;;26.00;55.52
13312;BME280;34033;48.672;9.376;2022-08-05T06:54:36;98499.00;;;25.90;55.46
13312;BME280;34033;48.672;9.376;2022-08-05T06:57:02;98488.53;;;25.87;55.02
13312;BME280;34033;48.672;9.376;2022-08-05T06:59:28;98489.72;;;26.09;55.26
13312;BME280;34033;48.672;9.376;2022-08-05T07:01:53;98485.97;;;26.03;53.82
13312;BME280;34033;48.672;9.376;2022-08-05T07:04:18;98480.16;;;26.27;54.18
13312;BME280;34033;48.672;9.376;2022-08-05T07:06:44;98484.09;;;26.00;53.71
13312;BME280;34033;48.672;9.376;2022-08-05T07:09:09;98473.03;;;26.23;53.84
13312;BME280;34033;48.672;9.376;2022-08-05T07:11:35;98476.59;;;26.32;54.05
13312;BME280;34033;48.672;9.376;2022-08-05T07:14:00;98477.47;;;26.38;53.22
13312;BME280;34033;48.672;9.376;2022-08-05T07:16:44;98470.06;;;26.32;53.15
13312;BME280;34033;48.672;9.376;2022-08-05T07:19:17;98486.84;;;26.39;53.38
13312;BME280;34033;48.672;9.376;2022-08-05T07:21:48;98491.50;;;26.36;53.52
13312;BME280;34033;48.672;9.376;2022-08-05T07:24:14;98489.94;;;26.35;53.41
13312;BME280;34033;48.672;9.376;2022-08-05T07:26:40;98485.66;;;26.45;52.43
13312;BME280;34033;48.672;9.376;2022-08-05T07:29:06;98497.50;;;26.53;53.23
13312;BME280;34033;48.672;9.376;2022-08-05T07:31:32;98505.59;;;26.54;53.37
13312;BME280;34033;48.672;9.376;2022-08-05T07:33:57;98504.41;;;26.61;52.35
13312;BME280;34033;48.672;9.376;2022-08-05T07:36:23;98512.53;;;26.63;52.13
13312;BME280;34033;48.672;9.376;2022-08-05T07:38:48;98518.13;;;26.72;51.07
13312;BME280;34033;48.672;9.376;2022-08-05T07:41:16;98523.28;;;26.68;50.53
13312;BME280;34033;48.672;9.376;2022-08-05T07:43:42;98522.88;;;26.60;51.00
13312;BME280;34033;48.672;9.376;2022-08-05T07:46:07;98519.28;;;26.80;50.56
13312;BME280;34033;48.672;9.376;2022-08-05T07:48:33;98525.72;;;26.89;49.84
13312;BME280;34033;48.672;9.376;2022-08-05T07:50:58;98525.31;;;26.82;50.00
13312;BME280;34033;48.672;9.376;2022-08-05T07:53:24;98532.75;;;26.74;50.25
13312;BME280;34033;48.672;9.376;2022-08-05T07:55:49;98528.75;;;26.86;50.11
13312;BME280;34033;48.672;9.376;2022-08-05T07:58:15;98523.13;;;26.91;49.73
13312;BME280;34033;48.672;9.376;2022-08-05T08:00:42;98529.53;;;27.01;50.14
13312;BME280;34033;48.672;9.376;2022-08-05T08:03:11;98544.47;;;27.05;50.16
13312;BME280;34033;48.672;9.376;2022-08-05T08:05:38;98534.84;;;27.08;49.87
13312;BME280;34033;48.672;9.376;2022-08-05T08:08:05;98543.81;;;26.95;48.70
13312;BME280;34033;48.672;9.376;2022-08-05T08:10:30;98532.25;;;26.90;48.88
13312;BME280;34033;48.672;9.376;2022-08-05T08:12:56;98534.56;;;27.06;48.54
13312;BME280;34033;48.672;9.376;2022-08-05T08:15:21;98533.63;;;27.15;48.57
13312;BME280;34033;48.672;9.376;2022-08-05T08:17:47;98535.06;;;27.25;48.07
13312;BME280;34033;48.672;9.376;2022-08-05T08:20:12;98534.72;;;27.37;48.13
13312;BME280;34033;48.672;9.376;2022-08-05T08:22:38;98532.72;;;27.44;48.04
13312;BME280;34033;48.672;9.376;2022-08-05T08:25:04;98529.78;;;27.38;47.87
13312;BME280;34033;48.672;9.376;2022-08-05T08:27:30;98521.41;;;27.55;48.26
13312;BME280;34033;48.672;9.376;2022-08-05T08:29:56;98521.47;;;27.60;47.81
13312;BME280;34033;48.672;9.376;2022-08-05T08:32:21;98538.91;;;27.57;47.38
13312;BME280;34033;48.672;9.376;2022-08-05T08:34:47;98537.00;;;27.74;46.32
13312;BME280;34033;48.672;9.376;2022-08-05T08:37:12;98526.47;;;27.65;46.51
13312;BME280;34033;48.672;9.376;2022-08-05T08:39:38;98526.53;;;27.71;45.99
13312;BME280;34033;48.672;9.376;2022-08-05T08:42:03;98536.28;;;27.79;45.27
13312;BME280;34033;48.672;9.376;2022-08-05T08:44:30;98524.97;;;27.96;45.58
13312;BME280;34033;48.672;9.376;2022-08-05T08:46:56;98525.75;;;27.96;45.45
13312;BME280;34033;48.672;9.376;2022-08-05T08:49:23;98532.97;;;27.86;45.96
13312;BME280;34033;48.672;9.376;2022-08-05T08:51:57;98530.03;;;28.06;45.47
13312;BME280;34033;48.672;9.376;2022-08-05T08:54:24;98529.41;;;28.17;44.74
13312;BME280;34033;48.672;9.376;2022-08-05T08:56:50;98524.09;;;28.10;44.57
13312;BME280;34033;48.672;9.376;2022-08-05T08:59:18;98519.50;;;27.98;44.91
13312;BME280;34033;48.672;9.376;2022-08-05T09:01:43;98511.44;;;28.02;44.83
13312;BME280;34033;48.672;9.376;2022-08-05T09:04:10;98513.38;;;28.10;44.60
13312;BME280;34033;48.672;9.376;2022-08-05T09:06:36;98504.31;;;28.17;44.40
13312;BME280;34033;48.672;9.376;2022-08-05T09:09:02;98500.69;;;28.17;43.66
13312;BME280;34033;48.672;9.376;2022-08-05T09:11:28;98496.47;;;28.18;44.33
13312;BME280;34033;48.672;9.376;2022-08-05T09:13:54;98486.44;;;28.08;42.92
13312;BME280;34033;48.672;9.376;2022-08-05T09:16:20;98489.31;;;28.34;43.56
13312;BME280;34033;48.672;9.376;2022-08-05T09:18:45;98484.50;;;28.56;42.74
13312;BME280;34033;48.672;9.376;2022-08-05T09:21:12;98467.41;;;28.42;42.30
13312;BME280;34033;48.672;9.376;2022-08-05T09:23:38;98476.66;;;28.57;42.33
13312;BME280;34033;48.672;9.376;2022-08-05T09:26:12;98476.84;;;28.79;42.15
13312;BME280;34033;48.672;9.376;2022-08-05T09:28:41;98470.38;;;28.90;42.48
13312;BME280;34033;48.672;9.376;2022-08-05T09:31:09;98476.69;;;28.94;41.52
13312;BME280;34033;48.672;9.376;2022-08-05T09:33:48;98469.78;;;28.80;39.88
13312;BME280;34033;48.672;9.376;2022-08-05T09:36:14;98473.06;;;28.68;40.84
13312;BME280;34033;48.672;9.376;2022-08-05T09:39:04;98471.56;;;28.72;40.70
13312;BME280;34033;48.672;9.376;2022-08-05T09:41:29;98464.44;;;28.68;40.55
13312;BME280;34033;48.672;9.376;2022-08-05T09:43:55;98461.41;;;28.77;41.56
13312;BME280;34033;48.672;9.376;2022-08-05T09:46:24;98454.19;;;28.92;41.57
13312;BME280;34033;48.672;9.376;2022-08-05T09:48:51;98449.00;;;29.08;40.03
13312;BME280;34033;48.672;9.376;2022-08-05T09:51:29;98451.53;;;29.37;40.03
13312;BME280;34033;48.672;9.376;2022-08-05T09:53:55;98448.44;;;29.57;40.08
13312;BME280;34033;48.672;9.376;2022-08-05T09:56:26;98444.28;;;29.80;39.96
13312;BME280;34033;48.672;9.376;2022-08-05T10:01:29;98443.28;;;30.11;39.08
13312;BME280;34033;48.672;9.376;2022-08-05T10:04:06;98443.56;;;30.24;39.03
13312;BME280;34033;48.672;9.376;2022-08-05T10:06:33;98436.50;;;30.14;38.31
13312;BME280;34033;48.672;9.376;2022-08-05T10:09:16;98438.25;;;29.90;38.83
13312;BME280;34033;48.672;9.376;2022-08-05T10:11:42;98427.28;;;30.16;37.44
13312;BME280;34033;48.672;9.376;2022-08-05T10:14:21;98436.22;;;30.23;37.63
13312;BME280;34033;48.672;9.376;2022-08-05T10:16:48;98434.41;;;30.26;37.70
13312;BME280;34033;48.672;9.376;2022-08-05T10:19:14;98433.84;;;30.22;37.90
13312;BME280;34033;48.672;9.376;2022-08-05T10:21:40;98436.47;;;30.31;37.56
13312;BME280;34033;48.672;9.376;2022-08-05T10:24:09;98428.88;;;30.28;38.20
13312;BME280;34033;48.672;9.376;2022-08-05T10:26:39;98434.63;;;30.22;37.92
13312;BME280;34033;48.672;9.376;2022-08-05T10:29:06;98437.00;;;30.13;37.92
13312;BME280;34033;48.672;9.376;2022-08-05T10:31:32;98443.56;;;30.19;39.03
13312;BME280;34033;48.672;9.376;2022-08-05T10:33:57;98443.56;;;30.24;38.49
13312;BME280;34033;48.672;9.376;2022-08-05T10:36:23;98441.72;;;30.49;37.65
13312;BME280;34033;48.672;9.376;2022-08-05T10:38:50;98430.69;;;30.76;37.79
13312;BME280;34033;48.672;9.376;2022-08-05T10:41:32;98426.94;;;31.03;37.83
13312;BME280;34033;48.672;9.376;2022-08-05T10:44:05;98429.47;;;31.23;36.77
13312;BME280;34033;48.672;9.376;2022-08-05T10:46:53;98428.88;;;31.41;35.50
13312;BME280;34033;48.672;9.376;2022-08-05T10:49:21;98427.53;;;31.48;35.89
13312;BME280;34033;48.672;9.376;2022-08-05T10:51:53;98427.19;;;31.57;35.75
13312;BME280;34033;48.672;9.376;2022-08-05T10:54:46;98433.47;;;31.67;36.17
13312;BME280;34033;48.672;9.376;2022-08-05T10:57:24;98418.91;;;31.83;35.41
13312;BME280;34033;48.672;9.376;2022-08-05T11:00:08;98422.41;;;31.71;35.02
13312;BME280;34033;48.672;9.376;2022-08-05T11:02:35;98420.84;;;31.70;35.24
13312;BME280;34033;48.672;9.376;2022-08-05T11:05:07;98424.75;;;31.72;34.88
13312;BME280;34033;48.672;9.376;2022-08-05T11:07:33;98417.88;;;31.81;35.03
13312;BME280;34033;48.672;9.376;2022-08-05T11:09:59;98424.47;;;31.76;34.87
13312;BME280;34033;48.672;9.376;2022-08-05T11:17:43;98431.75;;;31.88;33.99
13312;BME280;34033;48.672;9.376;2022-08-05T11:22:57;98435.56;;;32.07;34.11
13312;BME280;34033;48.672;9.376;2022-08-05T11:25:35;98436.13;;;32.00;34.62
13312;BME280;34033;48.672;9.376;2022-08-05T11:43:33;98426.53;;;32.76;33.99
13312;BME280;34033;48.672;9.376;2022-08-05T11:46:00;98432.13;;;32.93;33.72
13312;BME280;34033;48.672;9.376;2022-08-05T11:48:26;98426.84;;;32.97;33.64
13312;BME280;34033;48.672;9.376;2022-08-05T11:50:53;98426.66;;;32.89;32.21
13312;BME280;34033;48.672;9.376;2022-08-05T11:53:19;98427.50;;;32.84;32.65
13312;BME280;34033;48.672;9.376;2022-08-05T11:56:00;98430.69;;;32.81;32.99
13312;BME280;34033;48.672;9.376;2022-08-05T11:58:41;98424.84;;;32.86;33.69
13312;BME280;34033;48.672;9.376;2022-08-05T12:01:08;98426.00;;;33.02;32.66
13312;BME280;34033;48.672;9.376;2022-08-05T12:06:13;98418.16;;;33.40;32.89
13312;BME280;34033;48.672;9.376;2022-08-05T12:11:17;98421.53;;;33.81;30.42
13312;BME280;34033;48.672;9.376;2022-08-05T12:13:52;98418.00;;;33.70;30.44
13312;BME280;34033;48.672;9.376;2022-08-05T12:16:20;98409.69;;;33.61;30.21
13312;BME280;34033;48.672;9.376;2022-08-05T12:18:45;98414.72;;;33.60;30.03
13312;BME280;34033;48.672;9.376;2022-08-05T12:21:16;98412.84;;;33.63;31.94
13312;BME280;34033;48.672;9.376;2022-08-05T12:23:59;98401.25;;;33.81;30.78
13312;BME280;34033;48.672;9.376;2022-08-05T12:26:38;98404.13;;;34.00;31.13
13312;BME280;34033;48.672;9.376;2022-08-05T12:29:05;98397.47;;;33.86;30.60
13312;BME280;34033;48.672;9.376;2022-08-05T12:31:32;98395.25;;;33.92;30.31
13312;BME280;34033;48.672;9.376;2022-08-05T12:34:00;98397.00;;;33.82;30.46
13312;BME280;34033;48.672;9.376;2022-08-05T12:36:26;98395.25;;;33.92;29.57
13312;BME280;34033;48.672;9.376;2022-08-05T12:38:52;98392.63;;;34.08;29.67
13312;BME280;34033;48.672;9.376;2022-08-05T12:41:17;98389.81;;;34.02;29.13
13312;BME280;34033;48.672;9.376;2022-08-05T12:43:51;98382.69;;;34.22;29.59
13312;BME280;34033;48.672;9.376;2022-08-05T12:46:32;98384.19;;;34.55;29.72
13312;BME280;34033;48.672;9.376;2022-08-05T12:49:15;98374.94;;;34.96;29.62
13312;BME280;34033;48.672;9.376;2022-08-05T12:51:46;98375.16;;;35.24;29.44
13312;BME280;34033;48.672;9.376;2022-08-05T12:54:21;98365.91;;;35.60;28.71
13312;BME280;34033;48.672;9.376;2022-08-05T12:56:49;98364.09;;;35.56;28.50
13312;BME280;34033;48.672;9.376;2022-08-05T12:59:24;98361.34;;;35.85;27.34
13312;BME280;34033;48.672;9.376;2022-08-05T13:01:57;98357.53;;;35.90;26.82
13312;BME280;34033;48.672;9.376;2022-08-05T13:04:41;98362.91;;;35.86;26.90
13312;BME280;34033;48.672;9.376;2022-08-05T13:07:09;98358.50;;;35.72;26.81
13312;BME280;34033;48.672;9.376;2022-08-05T13:09:38;98355.16;;;35.68;27.34
13312;BME280;34033;48.672;9.376;2022-08-05T13:12:08;98357.97;;;35.60;28.20
13312;BME280;34033;48.672;9.376;2022-08-05T13:14:50;98345.88;;;35.09;27.95
13312;BME280;34033;48.672;9.376;2022-08-05T13:17:21;98351.25;;;34.39;29.34
13312;BME280;34033;48.672;9.376;2022-08-05T13:20:07;98339.19;;;34.61;29.48
13312;BME280;34033;48.672;9.376;2022-08-05T13:22:35;98338.78;;;34.70;29.65
13312;BME280;34033;48.672;9.376;2022-08-05T13:25:04;98334.50;;;34.58;29.05
13312;BME280;34033;48.672;9.376;2022-08-05T13:27:38;98328.69;;;34.58;29.95
13312;BME280;34033;48.672;9.376;2022-08-05T13:30:09;98324.00;;;34.55;29.38
13312;BME280;34033;48.672;9.376;2022-08-05T13:32:35;98325.34;;;34.81;29.49
13312;BME280;34033;48.672;9.376;2022-08-05T13:35:00;98318.75;;;35.06;29.79
13312;BME280;34033;48.672;9.376;2022-08-05T13:37:26;98325.44;;;35.01;29.07
13312;BME280;34033;48.672;9.376;2022-08-05T13:39:51;98324.91;;;34.90;28.82
13312;BME280;34033;48.672;9.376;2022-08-05T13:42:21;98315.06;;;35.06;29.11
13312;BME280;34033;48.672;9.376;2022-08-05T13:44:51;98314.25;;;35.52;29.93
13312;BME280;34033;48.672;9.376;2022-08-05T13:47:17;98307.41;;;35.29;28.24
13312;BME280;34033;48.672;9.376;2022-08-05T13:49:42;98310.25;;;35.55;28.72
13312;BME280;34033;48.672;9.376;2022-08-05T13:52:12;98307.38;;;35.76;28.61